createdAt,value
2023-05-06T00:01:15.937Z,4.10
2023-05-06T00:06:17.345Z,3.67
2023-05-06T00:11:18.728Z,4.70
2023-05-06T00:16:20.166Z,4.30
2023-05-06T00:21:21.607Z,4.63
2023-05-06T00:26:23.001Z,4.50
2023-05-06T00:31:24.429Z,4.50
2023-05-06T00:36:25.843Z,4.20
2023-05-06T00:41:27.267Z,4.50
2023-05-06T00:46:28.928Z,4.77
2023-05-06T00:51:30.356Z,4.80
2023-05-06T00:56:31.744Z,5.33
2023-05-06T01:01:33.190Z,5.33
2023-05-06T01:06:34.672Z,4.87
2023-05-06T01:11:36.093Z,4.90
2023-05-06T01:16:37.578Z,4.03
2023-05-06T01:21:39.067Z,4.27
2023-05-06T01:26:40.483Z,4.60
2023-05-06T01:31:41.880Z,4.60
2023-05-06T01:36:43.287Z,4.50
2023-05-06T01:41:44.693Z,4.23
2023-05-06T01:46:46.214Z,4.47
2023-05-06T01:51:47.699Z,3.47
2023-05-06T01:56:49.111Z,4.67
2023-05-06T02:01:50.569Z,3.90
2023-05-06T02:06:52.018Z,4.80
2023-05-06T02:11:53.444Z,4.00
2023-05-06T02:16:54.923Z,3.87
2023-05-06T02:21:56.364Z,3.80
2023-05-06T02:26:57.776Z,4.03
2023-05-06T02:31:59.335Z,4.23
2023-05-06T02:37:00.823Z,3.50
2023-05-06T02:42:02.199Z,3.70
2023-05-06T02:47:03.606Z,3.57
2023-05-06T02:52:05.021Z,3.63
2023-05-06T02:57:06.479Z,3.50
2023-05-06T03:02:07.890Z,4.17
2023-05-06T03:07:09.289Z,3.30
2023-05-06T03:12:10.709Z,3.77
2023-05-06T03:17:12.119Z,3.40
2023-05-06T03:22:13.522Z,3.50
2023-05-06T03:27:14.918Z,3.30
2023-05-06T03:32:16.334Z,3.27
2023-05-06T03:37:17.730Z,3.30
2023-05-06T03:42:19.175Z,3.87
2023-05-06T03:47:20.573Z,3.27
2023-05-06T03:52:21.978Z,3.60
2023-05-06T03:57:23.377Z,3.50
2023-05-06T04:02:24.848Z,3.80
2023-05-06T04:07:26.365Z,3.10
2023-05-06T04:12:27.765Z,3.67
2023-05-06T04:17:29.243Z,3.80
2023-05-06T04:22:30.675Z,3.03
2023-05-06T04:27:32.102Z,3.30
2023-05-06T04:32:33.573Z,4.03
2023-05-06T04:37:35.018Z,3.57
2023-05-06T04:42:36.433Z,3.20
2023-05-06T04:47:37.852Z,3.13
2023-05-06T04:52:39.319Z,3.23
2023-05-06T04:57:40.752Z,3.40
2023-05-06T05:02:42.280Z,3.67
2023-05-06T05:07:43.726Z,3.57
2023-05-06T05:12:45.158Z,3.70
2023-05-06T05:17:46.640Z,3.57
2023-05-06T05:22:48.054Z,3.30
2023-05-06T05:27:49.450Z,3.70
2023-05-06T05:32:50.961Z,3.47
2023-05-06T05:37:52.478Z,3.57
2023-05-06T05:42:53.857Z,3.33
2023-05-06T05:47:55.304Z,3.30
2023-05-06T05:52:56.745Z,3.73
2023-05-06T05:57:58.157Z,3.27
2023-05-06T06:02:59.598Z,3.50
2023-05-06T06:08:03.495Z,3.37
2023-05-06T06:13:05.286Z,3.87
2023-05-06T06:18:06.775Z,3.30
2023-05-06T06:23:08.195Z,3.30
2023-05-06T06:28:09.740Z,2.67
2023-05-06T06:33:11.212Z,3.53
2023-05-06T06:38:12.721Z,3.63
2023-05-06T06:43:14.130Z,3.10
2023-05-06T06:48:15.561Z,3.00
2023-05-06T06:53:16.970Z,3.30
2023-05-06T06:58:18.370Z,2.93
2023-05-06T07:03:19.902Z,2.57
2023-05-06T07:08:21.319Z,3.60
2023-05-06T07:13:22.984Z,2.70
2023-05-06T07:18:24.782Z,2.77
2023-05-06T07:23:26.341Z,3.20
2023-05-06T07:28:27.771Z,2.73
2023-05-06T07:33:29.209Z,2.57
2023-05-06T07:38:30.640Z,2.90
2023-05-06T07:43:32.058Z,2.43
2023-05-06T07:48:33.459Z,2.50
2023-05-06T07:53:34.975Z,2.70
2023-05-06T07:58:36.382Z,2.47
2023-05-06T08:03:38.044Z,2.83
2023-05-06T08:08:39.654Z,2.70
2023-05-06T08:13:41.268Z,2.93
2023-05-06T08:18:42.680Z,2.37
2023-05-06T08:23:44.084Z,2.60
2023-05-06T08:28:45.482Z,2.07
2023-05-06T08:33:46.929Z,2.73
2023-05-06T08:38:48.439Z,2.50
2023-05-06T08:43:49.832Z,2.63
2023-05-06T08:48:51.231Z,2.50
2023-05-06T08:53:52.634Z,2.97
2023-05-06T08:58:54.036Z,2.27
2023-05-06T09:03:55.430Z,2.20
2023-05-06T09:08:56.838Z,2.40
2023-05-06T09:13:58.227Z,2.70
2023-05-06T09:18:59.620Z,2.47
2023-05-06T09:24:01.067Z,2.20
2023-05-06T09:29:02.487Z,2.53
2023-05-06T09:34:03.893Z,2.10
2023-05-06T09:39:05.410Z,2.30
2023-05-06T09:44:06.846Z,2.50
2023-05-06T09:49:08.268Z,2.83
2023-05-06T09:54:09.682Z,2.10
2023-05-06T09:59:11.068Z,2.03
2023-05-06T10:04:12.640Z,2.30
2023-05-06T10:09:14.261Z,1.93
2023-05-06T10:14:15.669Z,2.23
2023-05-06T10:19:17.078Z,2.13
2023-05-06T10:24:18.480Z,2.23
2023-05-06T10:29:19.890Z,2.00
2023-05-06T10:34:21.644Z,2.33
2023-05-06T10:39:23.116Z,2.40
2023-05-06T10:44:24.874Z,2.30
2023-05-06T10:49:26.291Z,1.73
2023-05-06T10:54:27.712Z,2.00
2023-05-06T10:59:29.107Z,1.80
2023-05-06T11:04:30.515Z,1.47
2023-05-06T11:09:31.906Z,1.63
2023-05-06T11:14:33.314Z,1.93
2023-05-06T11:19:35.554Z,2.03
2023-05-06T11:24:37.001Z,1.70
2023-05-06T11:29:38.421Z,2.03
2023-05-06T11:34:39.832Z,1.73
2023-05-06T11:39:41.288Z,1.67
2023-05-06T11:44:42.710Z,1.93
2023-05-06T11:49:44.124Z,2.50
2023-05-06T11:54:45.532Z,1.70
2023-05-06T11:59:47.022Z,2.37
2023-05-06T12:04:48.503Z,1.67
2023-05-06T12:09:49.920Z,1.33
2023-05-06T12:14:51.324Z,1.50
2023-05-06T12:19:52.724Z,1.57
2023-05-06T12:24:54.130Z,1.57
2023-05-06T12:29:55.538Z,2.13
2023-05-06T12:34:56.943Z,1.57
2023-05-06T12:39:59.369Z,1.70
2023-05-06T12:45:01.000Z,1.80
2023-05-06T12:50:02.422Z,1.80
2023-05-06T12:55:03.967Z,2.20
2023-05-06T13:00:05.374Z,1.83
2023-05-06T13:05:06.779Z,2.20
2023-05-06T13:10:08.298Z,1.93
2023-05-06T13:15:09.848Z,2.07
2023-05-06T13:20:11.460Z,2.20
2023-05-06T13:25:13.097Z,2.40
2023-05-06T13:30:14.491Z,2.70
2023-05-06T13:35:15.883Z,3.30
2023-05-06T13:40:17.286Z,2.60
2023-05-06T13:45:18.701Z,2.20
2023-05-06T13:50:20.107Z,2.67
2023-05-06T13:55:21.502Z,2.67
2023-05-06T14:00:22.914Z,2.40
2023-05-06T14:05:24.398Z,2.67
2023-05-06T14:10:25.868Z,2.90
2023-05-06T14:15:27.261Z,2.30
2023-05-06T14:20:28.646Z,2.60
2023-05-06T14:25:30.064Z,3.50
2023-05-06T14:30:31.459Z,3.30
2023-05-06T14:35:32.845Z,3.10
2023-05-06T14:40:34.230Z,3.70
2023-05-06T14:45:35.667Z,3.67
2023-05-06T14:50:37.095Z,3.17
2023-05-06T14:55:38.559Z,2.93
2023-05-06T15:00:39.967Z,4.20
2023-05-06T15:05:41.462Z,3.23
2023-05-06T15:10:42.904Z,3.20
2023-05-06T15:15:44.293Z,3.33
2023-05-06T15:20:45.686Z,3.47
2023-05-06T15:25:47.077Z,2.80
2023-05-06T15:30:48.496Z,3.33
2023-05-06T15:35:49.906Z,3.60
2023-05-06T15:40:51.303Z,2.83
2023-05-06T15:45:52.715Z,3.10
2023-05-06T15:50:54.100Z,2.80
2023-05-06T15:55:58.027Z,3.20
2023-05-06T16:01:08.929Z,2.67
2023-05-06T16:06:10.388Z,2.00
2023-05-06T16:11:11.795Z,2.53
2023-05-06T16:16:13.254Z,2.47
2023-05-06T16:21:14.725Z,1.93
2023-05-06T16:26:16.143Z,2.03
2023-05-06T16:31:17.580Z,1.97
2023-05-06T16:36:18.989Z,2.07
2023-05-06T16:41:20.398Z,2.63
2023-05-06T16:46:24.297Z,2.33
2023-05-06T16:51:25.980Z,2.20
2023-05-06T16:56:33.099Z,2.47
2023-05-06T17:01:41.851Z,2.30
2023-05-06T17:06:43.255Z,1.87
2023-05-06T17:11:45.751Z,2.27
2023-05-06T17:16:47.205Z,1.83
2023-05-06T17:21:48.642Z,1.90
2023-05-06T17:26:50.031Z,2.07
2023-05-06T17:31:51.438Z,2.10
2023-05-06T17:36:52.854Z,2.00
2023-05-06T17:41:54.272Z,2.73
2023-05-06T17:46:55.725Z,2.43
2023-05-06T17:51:58.142Z,2.43
2023-05-06T17:57:00.729Z,2.33
2023-05-06T18:02:02.200Z,2.03
2023-05-06T18:07:03.680Z,2.30
2023-05-06T18:12:05.804Z,1.97
2023-05-06T18:17:07.209Z,2.57
2023-05-06T18:22:08.611Z,2.27
2023-05-06T18:27:10.004Z,2.53
2023-05-06T18:32:11.505Z,2.43
2023-05-06T18:37:13.014Z,2.17
2023-05-06T18:42:14.500Z,1.93
2023-05-06T18:47:15.905Z,2.40
2023-05-06T18:52:17.306Z,2.20
2023-05-06T18:57:18.754Z,2.13
2023-05-06T19:02:20.162Z,2.33
2023-05-06T19:07:21.602Z,2.10
2023-05-06T19:12:23.038Z,2.17
2023-05-06T19:17:24.529Z,2.20
2023-05-06T19:22:25.946Z,2.47
2023-05-06T19:27:27.348Z,2.07
2023-05-06T19:32:28.788Z,2.10
2023-05-06T19:37:30.228Z,2.27
2023-05-06T19:42:31.621Z,2.77
2023-05-06T19:47:33.099Z,2.27
2023-05-06T19:52:34.556Z,2.33
2023-05-06T19:57:36.016Z,2.50
2023-05-06T20:02:37.557Z,2.20
2023-05-06T20:07:39.081Z,2.47
2023-05-06T20:12:40.490Z,2.57
2023-05-06T20:17:41.929Z,2.60
2023-05-06T20:22:43.342Z,2.70
2023-05-06T20:27:44.749Z,2.43
2023-05-06T20:32:46.183Z,2.03
2023-05-06T20:37:47.632Z,2.53
2023-05-06T20:42:49.030Z,2.53
2023-05-06T20:47:50.598Z,2.80
2023-05-06T20:52:52.012Z,2.20
2023-05-06T20:57:53.416Z,2.23
2023-05-06T21:02:54.906Z,2.60
2023-05-06T21:07:56.400Z,2.50
2023-05-06T21:12:57.852Z,2.90
2023-05-06T21:17:59.334Z,2.30
2023-05-06T21:23:00.799Z,2.80
2023-05-06T21:28:02.286Z,2.93
2023-05-06T21:33:03.726Z,2.27
2023-05-06T21:38:05.168Z,2.23
2023-05-06T21:43:06.593Z,2.40
2023-05-06T21:48:08.056Z,2.63
2023-05-06T21:53:09.473Z,2.57
2023-05-06T21:58:10.857Z,2.33
2023-05-06T22:03:12.382Z,3.13
2023-05-06T22:08:13.801Z,2.47
2023-05-06T22:13:15.213Z,2.40
2023-05-06T22:18:17.279Z,2.47
2023-05-06T22:23:18.703Z,2.67
2023-05-06T22:28:20.159Z,2.53
2023-05-06T22:33:21.544Z,2.40
2023-05-06T22:38:22.956Z,2.57
2023-05-06T22:43:24.345Z,2.47
2023-05-06T22:48:25.766Z,3.20
2023-05-06T22:53:27.179Z,2.40
2023-05-06T22:58:28.580Z,2.60
2023-05-06T23:03:30.005Z,2.70
2023-05-06T23:08:31.418Z,2.60
2023-05-06T23:13:32.809Z,2.50
2023-05-06T23:18:34.215Z,2.77
2023-05-06T23:23:35.611Z,2.73
2023-05-06T23:28:37.006Z,2.40
2023-05-06T23:33:38.466Z,2.57
2023-05-06T23:38:39.892Z,2.23
2023-05-06T23:43:41.293Z,2.00
2023-05-06T23:48:42.691Z,2.40
2023-05-06T23:53:44.104Z,2.33
2023-05-06T23:58:45.574Z,2.70
